Time;durP1;ratioP1;P1;durP2;ratioP2;P2;SDS_P1;SDS_P2;PMS_P1;PMS_P2;Temp;Humidity;BMP_temperature;BMP_pressure;BME280_temperature;BME280_humidity;BME280_pressure;Samples;Min_cycle;Max_cycle;Signal;HPM_P1;HPM_P2
2024/03/21 00:03:06;;;;;;;;;17.75;17.00;;;;;8.97;61.44;101734.69;146613;570;45020;-80
2024/03/21 00:06:15;;;;;;;;;21.75;18.75;;;;;9.02;61.53;101728.16;146621;650;45915;-80
2024/03/21 00:13:26;;;;;;;;;20.50;15.50;;;;;9.03;61.08;101727.38;146619;670;45016;-79
2024/03/21 00:16:24;;;;;;;;;22.25;18.75;;;;;9.06;61.50;101718.94;146624;571;45020;-80
2024/03/21 00:19:46;;;;;;;;;23.25;18.50;;;;;9.11;61.93;101715.03;146618;600;45016;-79
2024/03/21 00:23:43;;;;;;;;;;;;;;;;;;;;;
2024/03/21 00:26:57;;;;;;;;;20.25;19.25;;;;;9.13;60.98;101709.16;146622;584;45018;-80
2024/03/21 00:30:43;;;;;;;;;;;;;;;;;;;;;
2024/03/21 00:34:17;;;;;;;;;22.25;20.00;;;;;9.12;60.57;101707.34;146617;571;45018;-78
2024/03/21 00:37:24;;;;;;;;;;;;;;;;;;;;;
2024/03/21 00:40:45;;;;;;;;;28.75;25.25;;;;;8.95;60.37;101694.91;146620;586;45018;-78
2024/03/21 00:44:13;;;;;;;;;;;;;;;;;;;;;
2024/03/21 00:47:27;;;;;;;;;;;;;;;;;;;;;
2024/03/21 00:54:33;;;;;;;;;20.00;16.50;;;;;7.39;61.19;101474.88;146618;569;45018;-80
2024/03/21 00:57:37;;;;;;;;;17.50;14.25;;;;;8.46;61.92;101692.16;146620;565;45020;-79
2024/03/21 01:01:04;;;;;;;;;14.00;13.75;;;;;8.36;62.42;101684.47;146616;610;46016;-78
2024/03/21 01:04:32;;;;;;;;;15.25;14.00;;;;;8.28;62.58;101683.88;146619;576;45021;-76
2024/03/21 01:07:30;;;;;;;;;11.50;11.50;;;;;8.19;62.78;101671.94;146618;574;45017;-75
2024/03/21 01:11:04;;;;;;;;;13.25;12.25;;;;;8.09;63.20;101667.75;146616;578;45020;-76
2024/03/21 01:14:06;;;;;;;;;16.75;13.75;;;;;8.05;63.62;101676.97;146616;564;46038;-77
2024/03/21 01:17:16;;;;;;;;;;;;;;;;;;;;;
2024/03/21 01:20:53;;;;;;;;;;;;;;;;;;;;;
2024/03/21 01:24:14;;;;;;;;;12.00;11.00;;;;;7.83;63.57;101656.34;146620;564;45020;-73
2024/03/21 01:27:21;;;;;;;;;;;;;;;;;;;;;
2024/03/21 01:30:54;;;;;;;;;11.75;10.25;;;;;7.63;62.98;101649.66;146619;584;45020;-78
2024/03/21 01:34:00;;;;;;;;;11.50;11.50;;;;;7.65;64.10;101657.50;146618;587;45018;-76
2024/03/21 01:36:49;;;;;;;;;15.00;14.00;;;;;7.66;66.79;101645.50;146712;569;45015;-76
2024/03/21 01:40:42;;;;;;;;;;;;;;;;;;;;;
2024/03/21 01:44:12;;;;;;;;;11.75;11.25;;;;;7.64;63.34;101635.06;146627;648;45021;-78
2024/03/21 01:47:27;;;;;;;;;13.75;11.75;;;;;7.64;63.78;101647.97;146623;586;45914;-76
2024/03/21 01:51:08;;;;;;;;;13.50;12.00;;;;;7.53;63.00;101643.63;146623;601;45020;-78
2024/03/21 01:54:50;;;;;;;;;;;;;;;;;;;;;
2024/03/21 01:58:12;;;;;;;;;19.00;15.75;;;;;7.34;63.78;101651.63;146628;578;45020;-78
2024/03/21 02:02:00;;;;;;;;;20.00;18.75;;;;;7.21;62.98;101638.53;146621;564;46013;-83
2024/03/21 02:09:34;;;;;;;;;20.50;19.75;;;;;7.12;63.42;101634.44;146623;624;45017;-84
2024/03/21 02:13:37;;;;;;;;;;;;;;;;;;;;;
2024/03/21 02:17:26;;;;;;;;;;;;;;;;;;;;;
2024/03/21 02:29:34;;;;;;;;;17.25;15.00;;;;;6.80;64.32;101643.87;146628;666;45020;-76
2024/03/21 02:33:05;;;;;;;;;18.25;14.00;;;;;6.65;65.26;101639.25;146622;639;45911;-83
2024/03/21 02:36:56;;;;;;;;;17.00;13.00;;;;;6.54;64.68;101642.66;146621;652;45020;-83
2024/03/21 02:40:26;;;;;;;;;17.25;14.00;;;;;6.48;65.82;101634.44;146619;563;45914;-80
2024/03/21 02:44:01;;;;;;;;;15.00;12.50;;;;;5.99;64.71;101564.31;146619;583;45020;-79
2024/03/21 02:47:54;;;;;;;;;12.25;11.25;;;;;4.97;64.97;101398.81;146615;593;45017;-78
2024/03/21 02:51:23;;;;;;;;;17.75;14.00;;;;;5.25;64.97;101467.19;146617;566;45021;-76
2024/03/21 02:55:31;;;;;;;;;;;;;;;;;;;;;
2024/03/21 02:59:02;;;;;;;;;14.75;13.25;;;;;6.24;65.58;101638.44;146618;583;45020;-78
2024/03/21 03:02:39;;;;;;;;;16.00;16.00;;;;;6.24;66.67;101639.34;146614;635;45915;-80
2024/03/21 03:06:29;;;;;;;;;18.00;17.00;;;;;4.89;65.64;101399.81;146616;584;45020;-81
2024/03/21 03:10:21;;;;;;;;;;;;;;;;;;;;;
2024/03/21 03:14:05;;;;;;;;;16.50;14.75;;;;;6.31;65.31;101634.69;146618;611;45020;-79
2024/03/21 03:17:53;;;;;;;;;16.25;14.00;;;;;4.99;64.75;101402.41;146613;584;45914;-78
2024/03/21 03:21:09;;;;;;;;;16.75;16.75;;;;;6.27;65.28;101637.81;146617;657;45020;-72
2024/03/21 03:24:44;;;;;;;;;15.50;12.75;;;;;6.23;65.63;101634.03;146612;563;45910;-72
2024/03/21 03:28:26;;;;;;;;;51.00;38.75;;;;;4.89;65.35;101403.31;146617;576;45022;-71
2024/03/21 03:31:40;;;;;;;;;;;;;;;;;;;;;
2024/03/21 03:39:12;;;;;;;;;;;;;;;;;;;;;
2024/03/21 03:42:42;;;;;;;;;;;;;;;;;;;;;
2024/03/21 03:50:00;;;;;;;;;18.75;15.25;;;;;5.92;66.45;101634.06;146620;570;45020;-79
2024/03/21 03:57:18;;;;;;;;;15.75;15.25;;;;;5.97;66.09;101655.06;146620;780;45022;-82
2024/03/21 04:01:10;;;;;;;;;17.75;15.25;;;;;5.92;65.63;101649.50;146617;596;45914;-81
2024/03/21 04:04:49;;;;;;;;;16.50;15.75;;;;;5.87;65.86;101647.31;146619;616;45020;-83
2024/03/21 04:08:26;;;;;;;;;19.50;15.50;;;;;5.83;65.54;101661.59;146616;746;45017;-80
2024/03/21 04:12:18;;;;;;;;;16.00;14.00;;;;;5.61;65.79;101634.78;146619;668;45020;-76
2024/03/21 04:20:24;;;;;;;;;;;;;;;;;;;;;
2024/03/21 04:23:44;;;;;;;;;20.00;16.00;;;;;5.75;66.77;101671.22;146616;606;45019;-78
2024/03/21 04:28:02;;;;;;;;;21.00;16.75;;;;;5.61;65.72;101651.13;146619;591;45020;-78
2024/03/21 04:31:47;;;;;;;;;;;;;;;;;;;;;
2024/03/21 04:35:40;;;;;;;;;19.00;16.50;;;;;5.62;66.75;101678.66;146619;595;45020;-85
2024/03/21 04:39:23;;;;;;;;;;;;;;;;;;;;;
2024/03/21 04:42:51;;;;;;;;;15.75;14.25;;;;;5.29;66.78;101640.63;146620;586;45020;-81
2024/03/21 04:46:22;;;;;;;;;20.75;16.50;;;;;5.60;67.78;101687.00;146616;571;45912;-82
2024/03/21 04:54:25;;;;;;;;;;;;;;;;;;;;;
2024/03/21 04:58:15;;;;;;;;;;;;;;;;;;;;;
2024/03/21 05:01:18;;;;;;;;;16.00;14.50;;;;;5.79;67.26;101692.97;146616;573;45915;-78
2024/03/21 05:05:05;;;;;;;;;17.75;15.00;;;;;5.82;66.78;101693.22;146619;587;45020;-88
2024/03/21 05:08:51;;;;;;;;;21.25;18.00;;;;;6.20;69.06;101693.06;146616;595;45016;-87
2024/03/21 05:16:43;;;;;;;;;18.25;16.00;;;;;8.84;65.27;101683.75;146616;592;45915;-76
2024/03/21 05:20:16;;;;;;;;;19.00;16.75;;;;;9.78;62.01;101687.84;146617;569;45021;-75
2024/03/21 05:32:02;;;;;;;;;;;;;;;;;;;;;
2024/03/21 05:35:28;;;;;;;;;18.50;18.50;;;;;12.74;53.54;101684.31;146615;587;48028;-82
2024/03/21 05:39:06;;;;;;;;;20.50;19.25;;;;;12.86;50.84;101678.88;146617;574;45018;-81
2024/03/21 05:42:25;;;;;;;;;19.75;17.75;;;;;12.69;50.38;101670.13;146618;665;45021;-80
2024/03/21 05:46:12;;;;;;;;;22.00;20.00;;;;;12.40;50.40;101665.84;146613;577;46016;-81
2024/03/21 05:54:19;;;;;;;;;;;;;;;;;;;;;
2024/03/21 05:58:08;;;;;;;;;25.50;22.00;;;;;11.46;53.12;101665.28;146619;579;45021;-76
2024/03/21 06:01:32;;;;;;;;;23.00;20.00;;;;;9.86;53.49;101394.88;146617;600;45914;-76
2024/03/21 06:09:02;;;;;;;;;31.75;28.00;;;;;11.66;53.03;101671.75;146615;620;45018;-78
2024/03/21 06:16:59;;;;;;;;;29.50;24.25;;;;;11.74;53.23;101673.13;146615;598;45018;-79
2024/03/21 06:20:44;;;;;;;;;29.00;25.00;;;;;10.70;53.42;101464.16;146619;595;45020;-84
2024/03/21 06:24:45;;;;;;;;;;;;;;;;;;;;;
2024/03/21 06:28:18;;;;;;;;;29.50;26.75;;;;;12.18;53.85;101668.84;146618;602;45021;-78
2024/03/21 06:32:29;;;;;;;;;;;;;;;;;;;;;
2024/03/21 06:36:17;;;;;;;;;24.75;22.75;;;;;12.53;51.32;101664.84;146619;618;45021;-75
2024/03/21 06:40:16;;;;;;;;;;;;;;;;;;;;;
2024/03/21 06:44:00;;;;;;;;;;;;;;;;;;;;;
2024/03/21 06:48:15;;;;;;;;;;;;;;;;;;;;;
2024/03/21 06:51:44;;;;;;;;;24.50;21.50;;;;;13.28;52.76;101658.72;146620;643;45021;-85
2024/03/21 06:55:21;;;;;;;;;;;;;;;;;;;;;
2024/03/21 06:59:06;;;;;;;;;26.25;24.00;;;;;13.79;53.60;101652.81;146621;571;45021;-74
2024/03/21 07:02:44;;;;;;;;;22.50;18.50;;;;;13.75;53.64;101603.94;146617;611;45915;-74
2024/03/21 07:07:08;;;;;;;;;23.25;21.25;;;;;13.50;54.28;101488.84;146621;672;45021;-74
2024/03/21 07:10:58;;;;;;;;;24.00;23.50;;;;;14.92;53.21;101652.50;146619;673;45027;-74
2024/03/21 07:14:36;;;;;;;;;;;;;;;;;;;;;
2024/03/21 07:18:30;;;;;;;;;24.50;23.50;;;;;15.50;51.31;101661.28;146617;572;45017;-76
2024/03/21 07:22:17;;;;;;;;;;;;;;;;;;;;;
2024/03/21 07:26:02;;;;;;;;;36.00;30.75;;;;;14.58;50.17;101429.78;146614;612;45916;-75
2024/03/21 07:30:08;;;;;;;;;29.75;26.75;;;;;15.43;50.50;101545.09;146621;575;45022;-74
2024/03/21 07:33:51;;;;;;;;;28.25;24.00;;;;;16.30;49.57;101647.44;146616;581;45016;-73
2024/03/21 07:37:30;;;;;;;;;;;;;;;;;;;;;
2024/03/21 07:41:13;;;;;;;;;33.75;30.50;;;;;16.66;48.45;101642.81;146639;653;44910;-74
2024/03/21 07:44:22;;;;;;;;;;;;;;;;;;;;;
2024/03/21 07:48:11;;;;;;;;;31.75;28.00;;;;;16.77;46.85;101645.94;146638;586;45912;-73
2024/03/21 07:51:52;;;;;;;;;;;;;;;;;;;;;
2024/03/21 07:55:43;;;;;;;;;22.75;20.50;;;;;16.71;45.70;101650.87;146636;564;45917;-77
2024/03/21 07:59:24;;;;;;;;;;;;;;;;;;;;;
2024/03/21 08:06:38;;;;;;;;;19.25;16.75;;;;;16.35;44.57;101649.44;146632;572;47010;-73
2024/03/21 08:10:22;;;;;;;;;;;;;;;;;;;;;
2024/03/21 08:13:40;;;;;;;;;19.75;18.75;;;;;16.16;46.71;101553.53;146640;646;44020;-71
2024/03/21 08:17:20;;;;;;;;;17.25;15.00;;;;;16.84;47.61;101627.91;146625;586;45911;-75
2024/03/21 08:21:05;;;;;;;;;14.25;13.25;;;;;16.01;46.79;101447.34;146639;607;44021;-74
2024/03/21 08:24:31;;;;;;;;;;;;;;;;;;;;;
2024/03/21 08:28:27;;;;;;;;;19.00;17.00;;;;;17.19;46.89;101559.34;146642;609;44021;-74
2024/03/21 08:32:18;;;;;;;;;16.50;14.00;;;;;17.27;46.21;101509.00;146638;600;44913;-73
2024/03/21 08:36:08;;;;;;;;;17.00;16.00;;;;;17.98;45.73;101561.38;146629;592;45020;-73
2024/03/21 08:39:35;;;;;;;;;19.25;17.75;;;;;18.41;44.59;101618.84;146615;564;45018;-73
2024/03/21 08:43:00;;;;;;;;;;;;;;;;;;;;;
2024/03/21 08:46:33;;;;;;;;;16.50;14.00;;;;;18.35;44.83;101615.09;146617;563;45914;-74
2024/03/21 08:50:05;;;;;;;;;14.00;12.50;;;;;18.34;45.52;101613.31;146620;593;45021;-74
2024/03/21 08:54:01;;;;;;;;;13.75;12.25;;;;;18.29;45.53;101576.44;146615;624;45916;-74
2024/03/21 09:02:09;;;;;;;;;16.75;15.00;;;;;18.48;43.21;101600.69;146619;579;45916;-72
2024/03/21 09:06:00;;;;;;;;;15.25;14.00;;;;;17.67;45.69;101457.97;146618;593;46020;-72
2024/03/21 09:09:35;;;;;;;;;16.75;14.00;;;;;17.50;45.00;101417.16;146618;582;45912;-73
2024/03/21 09:13:15;;;;;;;;;15.50;13.25;;;;;17.91;45.23;101478.94;146619;584;45020;-74
2024/03/21 09:16:49;;;;;;;;;12.00;12.00;;;;;18.61;43.58;101581.84;146617;598;45916;-73
2024/03/21 09:20:40;;;;;;;;;;;;;;;;;;;;;
2024/03/21 09:24:46;;;;;;;;;15.00;14.50;;;;;18.78;44.98;101574.50;146623;666;45916;-76
2024/03/21 09:28:05;;;;;;;;;11.75;11.75;;;;;18.90;43.10;101570.53;146620;578;45020;-73
2024/03/21 09:31:54;;;;;;;;;14.00;13.50;;;;;17.98;43.78;101396.06;146615;569;47917;-75
2024/03/21 09:35:36;;;;;;;;;15.25;13.50;;;;;18.85;44.46;101539.72;146617;566;45020;-72
2024/03/21 09:39:06;;;;;;;;;12.00;11.25;;;;;19.03;41.87;101563.91;146618;733;45914;-71
2024/03/21 09:42:52;;;;;;;;;14.50;12.50;;;;;19.09;43.13;101556.19;146618;577;47012;-75
2024/03/21 09:46:39;;;;;;;;;;;;;;;;;;;;;
2024/03/21 09:50:35;;;;;;;;;14.00;11.75;;;;;18.91;43.78;101476.84;146620;666;45020;-73
2024/03/21 09:54:08;;;;;;;;;;;;;;;;;;;;;
2024/03/21 09:57:46;;;;;;;;;11.75;11.75;;;;;19.61;42.61;101517.34;146611;598;45020;-71
2024/03/21 10:01:10;;;;;;;;;9.75;9.50;;;;;19.75;42.14;101526.56;146616;662;45916;-72
2024/03/21 10:04:37;;;;;;;;;11.75;9.25;;;;;19.79;40.99;101520.50;146628;716;45020;-73
2024/03/21 10:08:04;;;;;;;;;10.00;10.00;;;;;19.75;41.28;101510.75;146624;582;45018;-75
2024/03/21 10:15:26;;;;;;;;;13.50;10.50;;;;;19.84;38.74;101505.75;146622;570;45916;-73
2024/03/21 10:19:19;;;;;;;;;;;;;;;;;;;;;
2024/03/21 10:22:53;;;;;;;;;8.50;7.25;;;;;20.16;40.56;101491.59;146628;653;45918;-72
2024/03/21 10:26:44;;;;;;;;;9.75;7.00;;;;;19.87;41.63;101431.19;146631;658;45021;-72
2024/03/21 10:30:08;;;;;;;;;13.25;12.50;;;;;20.16;39.61;101481.94;146623;664;45918;-72
2024/03/21 10:33:55;;;;;;;;;;;;;;;;;;;;;
2024/03/21 10:37:39;;;;;;;;;;;;;;;;;;;;;
2024/03/21 10:41:34;;;;;;;;;12.50;11.00;;;;;20.00;43.56;101463.97;146642;582;44021;-71
2024/03/21 10:49:35;;;;;;;;;;;;;;;;;;;;;
2024/03/21 10:58:00;;;;;;;;;11.50;11.50;;;;;19.81;42.13;101437.22;146641;679;44020;-75
2024/03/21 11:05:15;;;;;;;;;13.75;11.75;;;;;19.93;40.60;101430.47;146642;637;44020;-72
2024/03/21 11:09:05;;;;;;;;;11.50;10.25;;;;;20.11;42.49;101422.12;146639;657;45912;-72
2024/03/21 11:12:36;;;;;;;;;;;;;;;;;;;;;
2024/03/21 11:16:19;;;;;;;;;13.25;10.75;;;;;19.57;40.96;101281.37;146637;572;45912;-73
2024/03/21 11:20:04;;;;;;;;;9.25;9.25;;;;;20.44;43.39;101411.47;146641;725;45012;-72
2024/03/21 11:23:23;;;;;;;;;11.00;9.33;;;;;20.30;41.59;101372.53;146639;672;45912;-73
2024/03/21 11:27:27;;;;;;;;;;;;;;;;;;;;;
2024/03/21 11:31:45;;;;;;;;;;;;;;;;;;;;;
2024/03/21 11:35:45;;;;;;;;;;;;;;;;;;;;;
2024/03/21 11:39:39;;;;;;;;;9.67;8.67;;;;;20.95;39.52;101368.63;146623;598;45917;-73
2024/03/21 11:46:56;;;;;;;;;;;;;;;;;;;;;
2024/03/21 11:50:36;;;;;;;;;10.33;8.33;;;;;20.03;41.39;101201.72;146611;634;45022;-72
2024/03/21 11:53:50;;;;;;;;;9.00;9.00;;;;;20.07;41.32;101194.78;146617;570;45910;-74
2024/03/21 11:57:50;;;;;;;;;9.00;8.50;;;;;20.88;40.50;101346.53;146623;571;45022;-73
2024/03/21 12:01:29;;;;;;;;;6.33;6.33;;;;;20.89;39.13;101326.31;146620;661;45912;-74
2024/03/21 12:05:32;;;;;;;;;6.67;6.00;;;;;19.50;41.23;101079.53;146635;615;45020;-73
2024/03/21 12:09:35;;;;;;;;;;;;;;;;;;;;;
2024/03/21 12:13:32;;;;;;;;;;;;;;;;;;;;;
2024/03/21 12:17:10;;;;;;;;;8.33;8.00;;;;;19.73;40.12;101138.81;146625;634;45911;-73
2024/03/21 12:25:01;;;;;;;;;;;;;;;;;;;;;
2024/03/21 12:32:50;;;;;;;;;;;;;;;;;;;;;
2024/03/21 12:36:39;;;;;;;;;;;;;;;;;;;;;
2024/03/21 12:40:42;;;;;;;;;10.00;9.00;;;;;19.68;42.07;101142.19;146623;622;45019;-73
2024/03/21 12:48:04;;;;;;;;;10.75;9.00;;;;;18.72;41.94;100954.31;146620;579;45019;-74
2024/03/21 12:52:09;;;;;;;;;;;;;;;;;;;;;
2024/03/21 12:55:41;;;;;;;;;9.00;8.25;;;;;18.91;41.80;100998.59;146622;590;45915;-74
2024/03/21 12:59:47;;;;;;;;;8.75;8.00;;;;;18.93;41.75;100975.84;146631;581;45022;-73
2024/03/21 13:03:46;;;;;;;;;7.00;7.00;;;;;18.60;40.88;100929.59;146628;577;45018;-74
2024/03/21 13:08:08;;;;;;;;;5.00;5.00;;;;;20.36;40.40;101247.13;146630;616;45022;-74
2024/03/21 13:12:02;;;;;;;;;;;;;;;;;;;;;
2024/03/21 13:15:45;;;;;;;;;17.25;13.25;;;;;20.47;42.55;101232.41;146627;575;45022;-76
2024/03/21 13:19:31;;;;;;;;;8.00;8.00;;;;;18.44;41.79;100903.81;146625;696;45018;-71
2024/03/21 13:23:16;;;;;;;;;9.67;8.67;;;;;20.34;40.07;101226.00;146628;592;45021;-71
2024/03/21 13:27:11;;;;;;;;;7.50;7.50;;;;;18.15;39.69;100866.44;146628;590;45020;-73
2024/03/21 13:31:15;;;;;;;;;7.50;6.75;;;;;20.32;39.02;101208.41;146629;615;46012;-74
2024/03/21 13:34:59;;;;;;;;;7.00;6.00;;;;;18.55;39.08;100881.31;146623;724;45016;-75
2024/03/21 13:37:58;;;;;;;;;6.00;6.00;;;;;20.38;38.56;101198.88;146630;706;45023;-72
2024/03/21 13:41:02;;;;;;;;;6.75;6.00;;;;;20.44;37.93;101199.00;146623;723;45016;-73
2024/03/21 13:45:03;;;;;;;;;;;;;;;;;;;;;
2024/03/21 13:48:18;;;;;;;;;10.25;9.25;;;;;20.51;40.47;101187.75;146623;654;45022;-74
2024/03/21 13:52:02;;;;;;;;;;;;;;;;;;;;;
2024/03/21 13:56:02;;;;;;;;;7.00;7.00;;;;;19.37;40.45;101016.16;146629;669;45911;-73
2024/03/21 13:59:47;;;;;;;;;9.67;9.67;;;;;19.01;41.25;100970.75;146630;637;45022;-73
2024/03/21 14:03:22;;;;;;;;;9.00;9.00;;;;;20.11;41.76;101167.62;146627;651;45024;-73
2024/03/21 14:07:25;;;;;;;;;;;;;;;;;;;;;
2024/03/21 14:11:05;;;;;;;;;6.00;5.00;;;;;19.71;40.36;101166.81;146627;618;45913;-73
2024/03/21 14:14:34;;;;;;;;;7.25;7.00;;;;;19.53;41.32;101148.00;146628;571;45022;-72
2024/03/21 14:21:47;;;;;;;;;;;;;;;;;;;;;
2024/03/21 14:25:29;;;;;;;;;;;;;;;;;;;;;
2024/03/21 14:28:49;;;;;;;;;6.75;5.75;;;;;16.44;40.77;100793.00;146635;672;45022;-71
2024/03/21 14:36:23;;;;;;;;;7.75;6.75;;;;;18.37;40.27;101118.09;146630;616;45022;-71
2024/03/21 14:43:50;;;;;;;;;;;;;;;;;;;;;
2024/03/21 14:47:23;;;;;;;;;;;;;;;;;;;;;
2024/03/21 14:51:09;;;;;;;;;;;;;;;;;;;;;
2024/03/21 14:54:42;;;;;;;;;7.75;7.00;;;;;17.61;39.45;101097.63;146627;656;45016;-71
2024/03/21 14:58:33;;;;;;;;;8.50;7.75;;;;;17.47;39.04;101095.47;146630;730;45020;-71
2024/03/21 15:02:00;;;;;;;;;8.50;7.25;;;;;17.50;41.26;101095.56;146628;573;45016;-72
2024/03/21 15:05:14;;;;;;;;;;;;;;;;;;;;;
2024/03/21 15:08:28;;;;;;;;;;;;;;;;;;;;;
2024/03/21 15:12:12;;;;;;;;;10.00;8.25;;;;;17.48;41.29;101107.75;146627;573;45022;-73
2024/03/21 15:20:05;;;;;;;;;9.25;7.50;;;;;15.59;40.60;100732.03;146629;656;46045;-72
2024/03/21 15:27:23;;;;;;;;;9.25;8.00;;;;;17.64;42.04;101082.88;146628;575;45022;-73
2024/03/21 15:31:09;;;;;;;;;9.00;8.00;;;;;15.74;41.71;100734.28;146625;587;45021;-73
2024/03/21 15:35:25;;;;;;;;;;;;;;;;;;;;;
2024/03/21 15:38:41;;;;;;;;;6.75;6.00;;;;;17.83;40.52;101083.41;146624;572;45019;-74
2024/03/21 15:42:27;;;;;;;;;;;;;;;;;;;;;
2024/03/21 15:46:17;;;;;;;;;6.00;6.00;;;;;16.63;40.88;100870.31;146626;660;45021;-73
2024/03/21 15:57:11;;;;;;;;;13.75;11.50;;;;;16.40;40.44;100946.44;146620;607;45020;-71
2024/03/21 16:00:38;;;;;;;;;15.50;14.50;;;;;17.21;41.09;101085.97;146621;581;45914;-72
2024/03/21 16:04:21;;;;;;;;;;;;;;;;;;;;;
2024/03/21 16:07:47;;;;;;;;;17.50;15.75;;;;;17.11;38.95;101078.69;146620;612;45019;-72
2024/03/21 16:11:32;;;;;;;;;12.00;11.50;;;;;14.86;41.24;100694.00;146625;578;45020;-73
2024/03/21 16:15:17;;;;;;;;;12.00;12.00;;;;;16.96;40.28;101066.88;146621;622;45915;-74
2024/03/21 16:18:54;;;;;;;;;14.75;14.00;;;;;15.00;39.50;100728.37;146623;637;45020;-72
2024/03/21 16:22:37;;;;;;;;;;;;;;;;;;;;;
2024/03/21 16:26:32;;;;;;;;;;;;;;;;;;;;;
2024/03/21 16:34:12;;;;;;;;;9.75;9.50;;;;;16.60;35.49;101071.81;146632;654;45020;-72
2024/03/21 16:38:28;;;;;;;;;;;;;;;;;;;;;
2024/03/21 16:41:43;;;;;;;;;;;;;;;;;;;;;
2024/03/21 16:45:21;;;;;;;;;14.50;12.00;;;;;16.33;37.53;101069.19;146640;667;44017;-72
2024/03/21 16:48:58;;;;;;;;;69.50;57.75;;;;;16.32;41.15;101077.84;146636;569;45020;-72
2024/03/21 16:52:00;;;;;;;;;47.50;38.00;;;;;16.28;40.89;101082.09;146630;625;45021;-72
2024/03/21 16:59:33;;;;;;;;;;;;;;;;;;;;;
2024/03/21 17:03:05;;;;;;;;;;;;;;;;;;;;;
2024/03/21 17:07:15;;;;;;;;;;;;;;;;;;;;;
2024/03/21 17:11:15;;;;;;;;;;;;;;;;;;;;;
2024/03/21 17:14:49;;;;;;;;;;;;;;;;;;;;;
2024/03/21 17:18:16;;;;;;;;;16.25;13.75;;;;;14.82;47.37;101085.41;146641;618;44020;-71
2024/03/21 17:25:41;;;;;;;;;;;;;;;;;;;;;
2024/03/21 17:29:24;;;;;;;;;11.00;9.00;;;;;14.24;47.85;101087.41;146639;617;44916;-72
2024/03/21 17:33:09;;;;;;;;;15.50;14.50;;;;;14.23;48.10;101095.13;146642;573;44020;-72
2024/03/21 17:36:55;;;;;;;;;12.50;12.25;;;;;13.60;48.71;101002.09;146626;604;45016;-74
2024/03/21 17:40:51;;;;;;;;;;;;;;;;;;;;;
2024/03/21 17:44:45;;;;;;;;;18.00;15.75;;;;;12.08;47.07;100704.75;146620;571;45019;-71
2024/03/21 17:48:30;;;;;;;;;10.50;8.50;;;;;12.05;47.12;100725.41;146623;697;45020;-73
2024/03/21 17:52:07;;;;;;;;;9.25;8.00;;;;;14.11;47.22;101100.72;146623;588;45914;-72
2024/03/21 17:55:53;;;;;;;;;8.75;8.25;;;;;11.92;46.94;100749.94;146629;569;45020;-73
2024/03/21 17:59:29;;;;;;;;;12.75;9.25;;;;;11.53;46.59;100687.53;146627;577;45017;-73
2024/03/21 18:02:48;;;;;;;;;10.00;8.75;;;;;13.88;46.24;101093.63;146626;582;45022;-71
2024/03/21 18:06:05;;;;;;;;;17.75;16.25;;;;;13.93;47.35;101098.22;146621;622;46012;-73
2024/03/21 18:09:43;;;;;;;;;41.75;32.25;;;;;14.00;46.97;101102.88;146622;624;45020;-73
2024/03/21 18:16:59;;;;;;;;;18.25;15.50;;;;;14.15;46.01;101105.25;146623;564;45020;-72
2024/03/21 18:21:00;;;;;;;;;12.75;10.00;;;;;12.81;46.18;100897.91;146624;613;45911;-71
2024/03/21 18:24:19;;;;;;;;;14.00;13.00;;;;;14.16;45.54;101117.47;146623;603;45020;-72
2024/03/21 18:28:15;;;;;;;;;;;;;;;;;;;;;
2024/03/21 18:32:11;;;;;;;;;18.00;15.25;;;;;11.82;46.42;100717.44;146622;575;45020;-72
2024/03/21 18:39:50;;;;;;;;;7.25;6.00;;;;;11.46;46.39;100681.13;146629;678;45020;-72
2024/03/21 18:43:08;;;;;;;;;9.00;9.00;;;;;13.76;47.00;101122.66;146626;668;45916;-73
2024/03/21 18:46:39;;;;;;;;;13.00;11.50;;;;;11.76;47.34;100811.53;146625;570;45020;-74
2024/03/21 18:50:31;;;;;;;;;;;;;;;;;;;;;
2024/03/21 18:54:10;;;;;;;;;33.75;29.00;;;;;13.22;47.60;101103.66;146618;564;45020;-74
2024/03/21 18:58:07;;;;;;;;;;;;;;;;;;;;;
2024/03/21 19:01:40;;;;;;;;;8.75;7.75;;;;;10.94;47.28;100761.66;146630;563;45020;-74
2024/03/21 19:05:05;;;;;;;;;26.75;22.75;;;;;13.16;47.46;101125.09;146623;583;45913;-75
2024/03/21 19:08:17;;;;;;;;;39.50;31.50;;;;;13.22;47.96;101120.16;146621;592;45020;-75
2024/03/21 19:11:35;;;;;;;;;20.75;18.50;;;;;13.32;48.05;101118.91;146621;564;45016;-74
2024/03/21 19:14:58;;;;;;;;;11.75;9.75;;;;;13.37;47.27;101123.53;146620;578;46010;-74
2024/03/21 19:18:16;;;;;;;;;33.75;31.25;;;;;13.42;46.81;101117.63;146622;633;45911;-74
2024/03/21 19:21:24;;;;;;;;;29.50;26.50;;;;;13.42;46.62;101126.31;146623;591;45021;-74
2024/03/21 19:25:06;;;;;;;;;;;;;;;;;;;;;
2024/03/21 19:28:52;;;;;;;;;;;;;;;;;;;;;
2024/03/21 19:32:26;;;;;;;;;15.00;12.50;;;;;13.45;47.22;101131.69;146625;734;45016;-74
2024/03/21 19:39:59;;;;;;;;;20.00;17.75;;;;;12.28;47.67;100961.34;146621;563;45016;-75
2024/03/21 19:47:32;;;;;;;;;11.25;11.00;;;;;11.85;48.65;100961.84;146623;565;45016;-75
2024/03/21 19:51:25;;;;;;;;;12.25;10.75;;;;;12.92;48.78;101123.09;146626;569;45023;-74
2024/03/21 19:59:00;;;;;;;;;15.00;13.50;;;;;10.58;48.98;100717.47;146624;569;46008;-74
2024/03/21 20:07:31;;;;;;;;;23.50;19.50;;;;;12.89;48.93;101116.84;146627;618;45022;-74
2024/03/21 20:11:08;;;;;;;;;20.00;17.50;;;;;11.70;48.88;100911.66;146620;574;45909;-74
2024/03/21 20:15:08;;;;;;;;;13.75;10.00;;;;;12.83;48.58;101116.56;146622;564;45020;-75
2024/03/21 20:18:41;;;;;;;;;;;;;;;;;;;;;
2024/03/21 20:22:36;;;;;;;;;10.00;7.25;;;;;10.55;49.11;100734.59;146629;731;45020;-73
2024/03/21 20:26:08;;;;;;;;;14.50;13.00;;;;;11.63;48.97;100917.38;146625;619;45021;-75
2024/03/21 20:29:37;;;;;;;;;14.25;13.75;;;;;12.69;49.41;101115.91;146623;590;46020;-75
2024/03/21 20:33:42;;;;;;;;;25.00;22.25;;;;;12.33;49.37;101057.75;146623;646;45022;-74
2024/03/21 20:37:09;;;;;;;;;25.75;22.00;;;;;12.40;49.67;101109.28;146621;691;47020;-75
2024/03/21 20:40:57;;;;;;;;;;;;;;;;;;;;;
2024/03/21 20:45:09;;;;;;;;;;;;;;;;;;;;;
2024/03/21 20:49:02;;;;;;;;;23.00;18.50;;;;;12.27;50.57;101117.25;146623;648;45017;-74
2024/03/21 20:52:35;;;;;;;;;22.25;20.00;;;;;9.93;50.50;100710.59;146619;600;45020;-75
2024/03/21 20:56:16;;;;;;;;;32.75;26.50;;;;;9.85;50.25;100701.56;146615;585;45915;-73
2024/03/21 21:00:15;;;;;;;;;;;;;;;;;;;;;
2024/03/21 21:04:14;;;;;;;;;22.00;21.50;;;;;10.02;50.23;100780.16;146621;721;45016;-74
2024/03/21 21:08:00;;;;;;;;;57.25;45.00;;;;;12.01;50.38;101109.03;146619;696;45020;-74
2024/03/21 21:11:54;;;;;;;;;23.75;21.00;;;;;9.75;49.49;100724.25;146623;665;45022;-76
2024/03/21 21:15:31;;;;;;;;;55.00;45.00;;;;;9.92;49.20;100749.37;146621;633;45020;-74
2024/03/21 21:19:36;;;;;;;;;;;;;;;;;;;;;
2024/03/21 21:23:29;;;;;;;;;14.00;13.75;;;;;10.73;49.04;100846.16;146617;577;45020;-75
2024/03/21 21:27:19;;;;;;;;;;;;;;;;;;;;;
2024/03/21 21:31:05;;;;;;;;;20.50;19.00;;;;;12.35;49.35;101105.53;146620;565;45020;-75
2024/03/21 21:34:46;;;;;;;;;16.75;14.25;;;;;12.35;49.74;101101.22;146624;609;45017;-74
2024/03/21 21:38:24;;;;;;;;;;;;;;;;;;;;;
2024/03/21 21:42:12;;;;;;;;;7.00;7.00;;;;;9.58;49.62;100650.87;146623;585;45019;-75
2024/03/21 21:45:27;;;;;;;;;9.00;7.25;;;;;12.03;50.34;101091.81;146627;607;45022;-74
2024/03/21 21:49:22;;;;;;;;;10.00;9.25;;;;;11.99;50.52;101088.16;146622;569;47016;-74
2024/03/21 21:53:15;;;;;;;;;;;;;;;;;;;;;
2024/03/21 21:56:41;;;;;;;;;;;;;;;;;;;;;
2024/03/21 22:00:44;;;;;;;;;16.25;14.50;;;;;9.57;50.80;100670.69;146622;595;45020;-74
2024/03/21 22:04:32;;;;;;;;;45.00;36.75;;;;;11.82;51.11;101072.47;146621;661;45912;-74
2024/03/21 22:07:57;;;;;;;;;10.75;9.75;;;;;11.82;51.01;101070.75;146625;571;45020;-75
2024/03/21 22:15:34;;;;;;;;;;;;;;;;;;;;;
2024/03/21 22:19:30;;;;;;;;;17.75;16.00;;;;;9.43;50.79;100687.16;146617;609;45021;-74
2024/03/21 22:23:34;;;;;;;;;19.75;16.00;;;;;9.71;51.07;100725.78;146625;653;45020;-75
2024/03/21 22:31:20;;;;;;;;;37.00;30.75;;;;;11.57;51.45;101071.19;146624;644;45020;-77
2024/03/21 22:34:57;;;;;;;;;14.75;13.75;;;;;9.24;51.76;100669.72;146620;581;45910;-76
2024/03/21 22:38:23;;;;;;;;;11.25;10.00;;;;;11.42;52.51;101060.00;146627;570;45020;-76
2024/03/21 22:42:10;;;;;;;;;20.75;20.75;;;;;11.43;52.15;101056.56;146620;573;45913;-76
2024/03/21 22:46:19;;;;;;;;;;;;;;;;;;;;;
2024/03/21 22:49:53;;;;;;;;;15.50;12.00;;;;;11.29;52.67;101061.03;146617;652;45912;-76
2024/03/21 22:53:28;;;;;;;;;8.00;8.00;;;;;11.16;53.73;101061.22;146712;578;45022;-77